createdAt,value
2018-12-15T00:01:18.736Z,65.80
2018-12-15T00:02:48.827Z,65.02
2018-12-15T00:04:18.702Z,65.19
2018-12-15T00:05:48.603Z,65.73
2018-12-15T00:07:18.627Z,65.81
2018-12-15T00:08:48.502Z,66.71
2018-12-15T00:10:18.647Z,65.51
2018-12-15T00:11:48.534Z,65.23
2018-12-15T00:13:18.413Z,65.13
2018-12-15T00:14:48.435Z,66.06
2018-12-15T00:16:18.570Z,65.70
2018-12-15T00:17:48.467Z,66.88
2018-12-15T00:19:18.486Z,66.70
2018-12-15T00:20:48.383Z,68.05
2018-12-15T00:22:18.275Z,68.17
2018-12-15T00:23:48.380Z,68.50
2018-12-15T00:25:18.310Z,68.77
2018-12-15T00:26:48.402Z,67.97
2018-12-15T00:28:18.295Z,67.38
2018-12-15T00:29:48.178Z,66.94
2018-12-15T00:31:18.193Z,66.33
2018-12-15T00:32:48.311Z,67.00
2018-12-15T00:34:18.207Z,66.81
2018-12-15T00:35:48.122Z,66.88
2018-12-15T00:37:18.021Z,67.54
2018-12-15T00:38:48.076Z,67.69
2018-12-15T00:40:17.987Z,67.80
2018-12-15T00:41:48.021Z,66.95
2018-12-15T00:43:17.903Z,66.81
2018-12-15T00:44:47.788Z,67.69
2018-12-15T00:46:17.699Z,67.18
2018-12-15T00:47:47.874Z,67.24
2018-12-15T00:49:17.754Z,67.83
2018-12-15T00:50:47.661Z,66.50
2018-12-15T00:52:17.564Z,67.03
2018-12-15T00:53:47.447Z,66.71
2018-12-15T00:55:17.358Z,66.90
2018-12-15T00:56:47.266Z,67.84
2018-12-15T00:58:17.278Z,67.75
2018-12-15T00:59:47.303Z,68.36
2018-12-15T01:01:17.186Z,67.84
2018-12-15T01:02:47.091Z,67.43
2018-12-15T01:04:16.971Z,67.79
2018-12-15T01:05:46.894Z,67.85
2018-12-15T01:07:16.794Z,67.26
2018-12-15T01:08:46.684Z,67.21
2018-12-15T01:10:16.595Z,67.74
2018-12-15T01:11:46.790Z,67.21
2018-12-15T01:13:16.990Z,68.58
2018-12-15T01:14:47.238Z,68.10
2018-12-15T01:16:17.126Z,69.54
2018-12-15T01:17:47.055Z,68.60
2018-12-15T01:19:16.975Z,68.00
2018-12-15T01:20:46.871Z,68.88
2018-12-15T01:22:16.762Z,68.85
2018-12-15T01:23:46.658Z,68.63
2018-12-15T01:25:16.531Z,67.80
2018-12-15T01:26:46.423Z,68.08
2018-12-15T01:28:16.317Z,68.14
2018-12-15T01:29:46.318Z,68.17
2018-12-15T01:31:16.212Z,67.13
2018-12-15T01:32:46.099Z,67.34
2018-12-15T01:34:15.994Z,67.23
2018-12-15T01:35:46.003Z,67.83
2018-12-15T01:37:15.902Z,66.76
2018-12-15T01:38:46.051Z,67.11
2018-12-15T01:40:15.952Z,66.39
2018-12-15T01:41:46.132Z,67.43
2018-12-15T01:43:16.025Z,66.69
2018-12-15T01:44:45.919Z,66.82
2018-12-15T01:46:15.811Z,67.33
2018-12-15T01:47:45.823Z,67.84
2018-12-15T01:49:15.714Z,66.85
2018-12-15T01:50:45.581Z,67.46
2018-12-15T01:52:15.454Z,68.19
2018-12-15T01:53:45.362Z,68.12
2018-12-15T01:55:15.388Z,68.33
2018-12-15T01:56:45.288Z,67.89
2018-12-15T01:58:16.751Z,69.12
2018-12-15T01:59:46.875Z,69.27
2018-12-15T02:01:16.888Z,68.98
2018-12-15T02:02:46.795Z,67.48
2018-12-15T02:04:16.687Z,67.02
2018-12-15T02:05:46.570Z,67.70
2018-12-15T02:07:16.459Z,67.87
2018-12-15T02:08:46.354Z,67.79
2018-12-15T02:10:16.255Z,67.89
2018-12-15T02:11:46.267Z,67.96
2018-12-15T02:13:16.159Z,67.93
2018-12-15T02:14:46.042Z,68.01
2018-12-15T02:16:15.931Z,68.14
2018-12-15T02:17:45.830Z,67.51
2018-12-15T02:19:15.843Z,67.41
2018-12-15T02:20:45.747Z,67.40
2018-12-15T02:22:15.758Z,67.86
2018-12-15T02:23:45.756Z,67.26
2018-12-15T02:25:15.661Z,67.77
2018-12-15T02:26:45.547Z,66.18
2018-12-15T02:28:15.435Z,66.72
2018-12-15T02:29:45.343Z,67.32
2018-12-15T02:31:15.220Z,66.65
2018-12-15T02:32:45.116Z,67.80
2018-12-15T02:34:15.130Z,67.40
2018-12-15T02:35:45.039Z,67.07
2018-12-15T02:37:15.056Z,65.97
2018-12-15T02:38:44.975Z,67.04
2018-12-15T02:40:14.872Z,66.47
2018-12-15T02:41:47.285Z,65.82
2018-12-15T02:43:16.678Z,66.92
2018-12-15T02:44:46.662Z,67.16
2018-12-15T02:46:16.569Z,65.89
2018-12-15T02:47:46.456Z,66.53
2018-12-15T02:49:16.361Z,67.75
2018-12-15T02:50:46.368Z,66.92
2018-12-15T02:52:16.372Z,66.74
2018-12-15T02:53:46.271Z,67.09
2018-12-15T02:55:16.207Z,67.62
2018-12-15T02:56:46.216Z,66.75
2018-12-15T02:58:16.207Z,65.91
2018-12-15T02:59:46.111Z,65.65
2018-12-15T03:01:16.134Z,65.24
2018-12-15T03:02:46.122Z,65.23
2018-12-15T03:04:16.017Z,66.38
2018-12-15T03:05:46.465Z,65.62
2018-12-15T03:07:16.363Z,66.09
2018-12-15T03:08:46.248Z,66.09
2018-12-15T03:10:16.154Z,65.47
2018-12-15T03:11:46.265Z,65.09
2018-12-15T03:13:16.159Z,66.93
2018-12-15T03:14:46.060Z,66.17
2018-12-15T03:16:15.962Z,65.72
2018-12-15T03:17:49.000Z,66.10
2018-12-15T03:19:17.900Z,65.92
2018-12-15T03:21:06.955Z,66.27
2018-12-15T03:22:36.847Z,66.27
2018-12-15T03:24:06.745Z,65.83
2018-12-15T03:25:36.767Z,66.69
2018-12-15T03:27:06.662Z,66.38
2018-12-15T03:28:36.571Z,66.12
2018-12-15T03:30:06.613Z,66.63
2018-12-15T03:31:36.586Z,66.29
2018-12-15T03:33:06.587Z,66.97
2018-12-15T03:34:36.462Z,66.64
2018-12-15T03:36:06.359Z,66.62
2018-12-15T03:37:36.238Z,67.14
2018-12-15T03:39:06.266Z,67.38
2018-12-15T03:40:36.482Z,66.93
2018-12-15T03:42:06.371Z,67.30
2018-12-15T03:43:36.254Z,67.54
2018-12-15T03:45:06.375Z,68.90
2018-12-15T03:46:36.280Z,68.66
2018-12-15T03:48:06.282Z,67.07
2018-12-15T03:49:36.175Z,65.91
2018-12-15T03:51:06.194Z,65.82
2018-12-15T03:52:36.180Z,65.66
2018-12-15T03:54:06.075Z,65.83
2018-12-15T03:55:35.963Z,66.82
2018-12-15T03:57:05.951Z,66.55
2018-12-15T03:58:35.833Z,66.66
2018-12-15T04:00:05.951Z,66.16
2018-12-15T04:01:35.864Z,67.13
2018-12-15T04:03:05.859Z,67.62
2018-12-15T04:04:35.965Z,66.17
2018-12-15T04:06:05.989Z,67.90
2018-12-15T04:07:35.995Z,65.94
2018-12-15T04:09:06.134Z,68.01
2018-12-15T04:10:36.038Z,67.77
2018-12-15T04:12:05.932Z,67.18
2018-12-15T04:13:35.833Z,67.50
2018-12-15T04:15:05.972Z,66.78
2018-12-15T04:16:35.859Z,66.66
2018-12-15T04:18:05.761Z,66.16
2018-12-15T04:19:35.668Z,66.01
2018-12-15T04:21:05.683Z,66.47
2018-12-15T04:22:35.691Z,66.27
2018-12-15T04:24:05.591Z,65.22
2018-12-15T04:25:35.718Z,66.55
2018-12-15T04:27:05.624Z,66.91
2018-12-15T04:28:35.515Z,66.42
2018-12-15T04:30:06.962Z,67.33
2018-12-15T04:31:36.856Z,66.49
2018-12-15T04:33:06.751Z,66.91
2018-12-15T04:34:36.647Z,67.95
2018-12-15T04:36:15.251Z,66.60
2018-12-15T04:37:45.248Z,67.60
2018-12-15T04:39:15.144Z,66.21
2018-12-15T04:40:45.159Z,65.99
2018-12-15T04:42:15.106Z,66.04
2018-12-15T04:43:45.126Z,67.23
2018-12-15T04:45:14.995Z,65.77
2018-12-15T04:46:45.742Z,66.69
2018-12-15T04:48:15.637Z,66.58
2018-12-15T04:49:45.634Z,65.88
2018-12-15T04:51:15.541Z,67.12
2018-12-15T04:52:45.536Z,67.12
2018-12-15T04:54:15.535Z,66.71
2018-12-15T04:55:45.441Z,66.53
2018-12-15T04:57:15.347Z,67.81
2018-12-15T04:58:45.237Z,68.04
2018-12-15T05:00:15.271Z,68.09
2018-12-15T05:01:45.221Z,67.22
2018-12-15T05:03:15.111Z,68.31
2018-12-15T05:04:44.998Z,68.04
2018-12-15T05:06:14.896Z,67.06
2018-12-15T05:07:44.794Z,66.74
2018-12-15T05:09:14.813Z,67.20
2018-12-15T05:10:44.690Z,67.42
2018-12-15T05:12:14.587Z,66.55
2018-12-15T05:13:44.471Z,67.15
2018-12-15T05:15:14.459Z,67.22
2018-12-15T05:16:44.348Z,66.68
2018-12-15T05:18:18.165Z,67.34
2018-12-15T05:22:10.834Z,67.94
2018-12-15T05:23:40.877Z,67.58
2018-12-15T05:25:11.191Z,67.93
2018-12-15T05:26:41.063Z,67.90
2018-12-15T05:28:10.913Z,67.87
2018-12-15T05:29:40.830Z,67.61
2018-12-15T05:31:10.687Z,67.39
2018-12-15T05:32:40.560Z,68.25
2018-12-15T05:34:10.510Z,68.84
2018-12-15T05:35:40.370Z,68.55
2018-12-15T05:37:10.244Z,68.18
2018-12-15T05:38:40.110Z,68.51
2018-12-15T05:40:10.199Z,67.45
2018-12-15T05:41:40.087Z,68.09
2018-12-15T05:43:10.054Z,68.51
2018-12-15T05:44:39.938Z,67.67
2018-12-15T05:46:09.827Z,67.73
2018-12-15T05:47:39.713Z,68.26
2018-12-15T05:49:09.686Z,67.92
2018-12-15T05:50:39.561Z,67.30
2018-12-15T05:52:09.570Z,67.99
2018-12-15T05:53:39.451Z,68.59
2018-12-15T05:55:09.441Z,68.08
2018-12-15T05:56:39.539Z,68.34
2018-12-15T05:58:09.411Z,67.61
2018-12-15T05:59:39.279Z,68.49
2018-12-15T06:01:09.205Z,67.52
2018-12-15T06:02:39.364Z,68.58
2018-12-15T06:04:09.235Z,68.68
2018-12-15T06:05:39.223Z,69.36
2018-12-15T06:07:09.115Z,68.35
2018-12-15T06:08:39.117Z,68.80
2018-12-15T06:10:09.206Z,68.71
2018-12-15T06:11:39.086Z,68.25
2018-12-15T06:13:09.056Z,69.04
2018-12-15T06:14:39.151Z,68.71
2018-12-15T06:16:09.020Z,69.58
2018-12-15T06:17:38.903Z,68.66
2018-12-15T06:19:08.900Z,70.00
2018-12-15T06:20:38.894Z,69.95
2018-12-15T06:22:08.778Z,70.11
2018-12-15T06:23:38.862Z,68.53
2018-12-15T06:25:08.729Z,69.91
2018-12-15T06:26:38.939Z,68.92
2018-12-15T06:28:08.808Z,69.82
2018-12-15T06:29:38.689Z,68.90
2018-12-15T06:31:08.554Z,68.85
2018-12-15T06:32:38.434Z,69.02
2018-12-15T06:34:08.522Z,71.33
2018-12-15T06:35:38.503Z,70.81
2018-12-15T06:37:08.375Z,69.94
2018-12-15T06:38:38.244Z,70.11
2018-12-15T06:40:08.258Z,69.74
2018-12-15T06:41:38.132Z,69.69
2018-12-15T06:43:08.015Z,70.37
2018-12-15T06:44:37.871Z,69.92
2018-12-15T06:46:07.854Z,69.76
2018-12-15T06:47:37.936Z,70.74
2018-12-15T06:49:08.362Z,69.42
2018-12-15T06:50:38.227Z,69.75
2018-12-15T06:52:08.256Z,69.05
2018-12-15T06:53:38.126Z,69.06
2018-12-15T06:55:08.314Z,70.16
2018-12-15T06:56:38.455Z,69.58
2018-12-15T06:58:08.330Z,69.55
2018-12-15T06:59:38.182Z,69.79
2018-12-15T07:01:08.190Z,69.98
2018-12-15T07:02:38.057Z,69.21
2018-12-15T07:04:07.941Z,69.87
2018-12-15T07:05:37.797Z,69.75
2018-12-15T07:07:07.702Z,69.90
2018-12-15T07:08:37.658Z,70.37
2018-12-15T07:10:07.670Z,70.13
2018-12-15T07:11:37.610Z,71.18
2018-12-15T07:13:07.618Z,71.19
2018-12-15T07:14:37.633Z,71.16
2018-12-15T07:16:07.527Z,70.71
2018-12-15T07:17:37.490Z,70.09
2018-12-15T07:19:07.559Z,70.87
2018-12-15T07:20:37.454Z,70.65
2018-12-15T07:22:07.345Z,71.01
2018-12-15T07:23:37.247Z,70.71
2018-12-15T07:25:07.145Z,70.41
2018-12-15T07:26:37.054Z,70.10
2018-12-15T07:28:07.084Z,70.80
2018-12-15T07:29:36.985Z,70.98
2018-12-15T07:31:06.862Z,70.82
2018-12-15T07:32:36.755Z,70.21
2018-12-15T07:34:06.768Z,70.11
2018-12-15T07:35:36.658Z,70.22
2018-12-15T07:37:06.542Z,69.22
2018-12-15T07:38:36.440Z,70.24
2018-12-15T07:40:06.543Z,70.18
2018-12-15T07:41:36.442Z,70.59
2018-12-15T07:43:06.355Z,70.43
2018-12-15T07:44:36.250Z,70.55
2018-12-15T07:46:06.151Z,70.53
2018-12-15T07:47:36.079Z,70.15
2018-12-15T07:49:05.963Z,69.83
2018-12-15T07:50:35.843Z,69.88
2018-12-15T07:52:05.823Z,69.97
2018-12-15T07:54:00.019Z,70.82
2018-12-15T07:55:29.903Z,70.53
2018-12-15T07:56:59.795Z,71.19
2018-12-15T07:58:29.686Z,70.65
2018-12-15T08:00:04.240Z,71.04
2018-12-15T08:01:34.247Z,71.38
2018-12-15T08:03:15.033Z,71.52
2018-12-15T08:04:44.988Z,71.05
2018-12-15T08:06:14.894Z,70.40
2018-12-15T08:07:44.793Z,70.38
2018-12-15T08:09:14.671Z,71.94
2018-12-15T08:10:50.242Z,71.34
2018-12-15T08:12:26.170Z,71.56
2018-12-15T08:14:02.469Z,70.94
2018-12-15T08:15:32.482Z,71.95
2018-12-15T08:17:02.622Z,71.68
2018-12-15T08:18:32.547Z,71.33
2018-12-15T08:20:03.696Z,71.35
2018-12-15T08:21:34.354Z,70.19
2018-12-15T08:23:04.671Z,70.66
2018-12-15T08:24:34.597Z,69.38
2018-12-15T08:26:04.646Z,69.78
2018-12-15T08:27:34.573Z,69.35
2018-12-15T08:29:04.523Z,70.32
2018-12-15T08:30:34.431Z,70.62
2018-12-15T08:32:05.364Z,69.97
2018-12-15T08:33:35.312Z,69.36
2018-12-15T08:35:05.466Z,70.03
2018-12-15T08:36:35.371Z,69.66
2018-12-15T08:38:05.525Z,70.31
2018-12-15T08:39:35.445Z,69.88
2018-12-15T08:41:05.383Z,69.32
2018-12-15T08:44:15.753Z,68.77
2018-12-15T08:45:45.644Z,68.45
2018-12-15T08:47:15.716Z,69.45
2018-12-15T08:48:45.742Z,69.68
2018-12-15T08:50:15.664Z,68.33
2018-12-15T08:51:45.572Z,70.13
2018-12-15T08:53:15.663Z,68.97
2018-12-15T08:54:46.192Z,69.73
2018-12-15T08:56:16.078Z,70.17
2018-12-15T08:57:45.998Z,70.41
2018-12-15T08:59:16.044Z,69.22
2018-12-15T09:00:45.973Z,69.57
2018-12-15T09:02:15.880Z,68.66
2018-12-15T09:03:45.819Z,69.06
2018-12-15T09:05:16.009Z,69.48
2018-12-15T09:06:45.966Z,68.92
2018-12-15T09:08:15.977Z,68.78
2018-12-15T09:09:46.079Z,67.93
2018-12-15T09:11:16.069Z,68.51
2018-12-15T09:12:45.939Z,68.44
2018-12-15T09:14:15.810Z,69.47
2018-12-15T09:15:45.918Z,67.76
2018-12-15T09:17:15.806Z,69.02
2018-12-15T09:18:45.687Z,68.93
2018-12-15T09:20:15.665Z,67.24
2018-12-15T09:21:45.534Z,67.33
2018-12-15T09:23:15.423Z,68.35
2018-12-15T09:24:45.295Z,67.65
2018-12-15T09:26:15.168Z,68.53
2018-12-15T09:27:45.030Z,68.21
2018-12-15T09:29:14.926Z,68.52
2018-12-15T09:30:44.807Z,67.02
2018-12-15T09:32:14.915Z,67.52
2018-12-15T09:33:45.018Z,67.34
2018-12-15T09:35:14.904Z,67.65
2018-12-15T09:36:44.955Z,67.49
2018-12-15T09:38:14.854Z,67.83
2018-12-15T09:39:44.765Z,67.88
2018-12-15T09:41:14.810Z,68.09
2018-12-15T09:42:44.842Z,67.64
2018-12-15T09:44:14.794Z,67.37
2018-12-15T09:45:44.822Z,67.55
2018-12-15T09:47:14.882Z,67.23
2018-12-15T09:48:45.008Z,67.56
2018-12-15T09:50:14.967Z,67.40
2018-12-15T09:51:44.946Z,66.93
2018-12-15T09:53:35.403Z,67.82
2018-12-15T09:55:05.635Z,67.22
2018-12-15T09:56:35.673Z,67.41
2018-12-15T09:58:05.996Z,66.90
2018-12-15T09:59:36.307Z,67.70
2018-12-15T10:01:06.512Z,67.65
2018-12-15T10:02:36.681Z,66.40
2018-12-15T10:04:07.274Z,66.87
2018-12-15T10:05:37.534Z,66.47
2018-12-15T10:07:07.570Z,66.51
2018-12-15T10:08:37.655Z,66.24
2018-12-15T10:12:03.563Z,66.00
2018-12-15T10:13:33.689Z,67.01
2018-12-15T10:15:04.426Z,65.80
2018-12-15T10:16:34.675Z,65.79
2018-12-15T10:18:04.776Z,65.69
2018-12-15T10:19:35.241Z,66.36
2018-12-15T10:21:06.175Z,65.51
2018-12-15T10:22:36.716Z,65.54
2018-12-15T10:24:07.225Z,64.99
2018-12-15T10:25:37.215Z,66.25
2018-12-15T10:27:08.340Z,65.77
2018-12-15T10:28:38.594Z,64.95
2018-12-15T10:30:14.520Z,65.46
2018-12-15T10:31:50.450Z,64.90
2018-12-15T10:33:20.495Z,66.10
2018-12-15T10:34:50.543Z,66.66
2018-12-15T10:36:20.848Z,65.31
2018-12-15T10:37:51.213Z,66.12
2018-12-15T10:39:21.737Z,65.70
2018-12-15T10:49:35.086Z,64.66
2018-12-15T10:51:11.201Z,64.47
2018-12-15T10:52:41.352Z,65.50
2018-12-15T10:54:21.286Z,65.36
2018-12-15T10:55:51.639Z,64.46
2018-12-15T10:57:22.041Z,64.69
2018-12-15T10:58:53.050Z,64.00
2018-12-15T11:00:35.708Z,63.98
2018-12-15T11:02:05.894Z,64.67
2018-12-15T11:03:36.175Z,65.00
2018-12-15T11:05:06.399Z,64.23
2018-12-15T11:06:36.555Z,63.74
2018-12-15T11:08:06.666Z,64.91
2018-12-15T11:09:37.155Z,64.77
2018-12-15T11:11:07.308Z,63.81
2018-12-15T11:12:37.443Z,64.02
2018-12-15T11:14:07.713Z,65.12
2018-12-15T11:15:38.097Z,64.62
2018-12-15T11:17:08.396Z,64.45
2018-12-15T11:18:38.385Z,63.77
2018-12-15T11:20:08.674Z,64.11
2018-12-15T11:21:38.707Z,63.84
2018-12-15T11:23:09.176Z,63.64
2018-12-15T11:24:39.205Z,63.63
2018-12-15T11:26:09.541Z,63.98
2018-12-15T11:27:39.879Z,64.14
2018-12-15T11:29:09.887Z,64.37
2018-12-15T11:30:39.892Z,63.15
2018-12-15T11:32:10.006Z,62.90
2018-12-15T11:33:40.196Z,63.86
2018-12-15T11:35:10.255Z,64.60
2018-12-15T11:36:40.396Z,64.76
2018-12-15T11:38:10.499Z,63.41
2018-12-15T11:39:40.768Z,62.52
2018-12-15T11:45:05.846Z,62.62
2018-12-15T11:46:36.711Z,62.01
2018-12-15T11:50:02.723Z,61.76
2018-12-15T11:51:32.705Z,61.31
2018-12-15T11:53:02.852Z,62.12
2018-12-15T11:54:32.820Z,62.03
2018-12-15T11:56:02.895Z,62.11
2018-12-15T11:57:32.815Z,60.93
2018-12-15T11:59:03.876Z,61.74
2018-12-15T12:00:34.163Z,61.40
2018-12-15T12:02:04.319Z,60.60
2018-12-15T12:03:34.434Z,61.89
2018-12-15T12:05:05.125Z,61.03
2018-12-15T12:16:13.311Z,61.75
2018-12-15T12:17:43.238Z,60.92
2018-12-15T12:19:13.221Z,60.02
2018-12-15T12:20:43.216Z,60.54
2018-12-15T12:22:13.392Z,60.54
2018-12-15T12:23:43.356Z,61.25
2018-12-15T12:25:13.411Z,61.38
2018-12-15T12:26:43.375Z,62.08
2018-12-15T12:30:09.655Z,61.46
2018-12-15T12:31:39.631Z,62.09
2018-12-15T12:33:09.614Z,61.41
2018-12-15T12:34:39.712Z,61.21
2018-12-15T12:36:09.753Z,60.99
2018-12-15T12:37:39.735Z,61.31
2018-12-15T12:39:09.738Z,61.46
2018-12-15T12:40:39.692Z,61.56
2018-12-15T12:42:09.671Z,62.88
2018-12-15T12:43:39.644Z,61.95
2018-12-15T12:45:09.748Z,61.01
2018-12-15T12:46:39.818Z,61.93
2018-12-15T12:48:09.927Z,60.27
2018-12-15T12:49:39.905Z,61.37
2018-12-15T12:51:09.896Z,62.67
2018-12-15T12:52:39.823Z,63.91
2018-12-15T12:54:09.786Z,61.96
2018-12-15T12:55:52.355Z,61.36
2018-12-15T12:57:22.309Z,61.82
2018-12-15T12:58:52.524Z,61.08
2018-12-15T13:00:22.501Z,63.09
2018-12-15T13:01:52.432Z,61.98
2018-12-15T13:03:22.374Z,62.57
2018-12-15T13:04:52.331Z,62.00
2018-12-15T13:06:22.286Z,62.21
2018-12-15T13:07:52.212Z,62.99
2018-12-15T13:09:22.170Z,62.13
2018-12-15T13:10:52.243Z,61.71
2018-12-15T13:12:22.483Z,61.99
2018-12-15T13:13:52.505Z,60.92
2018-12-15T13:15:22.484Z,62.00
2018-12-15T13:16:52.575Z,61.79
2018-12-15T13:18:22.664Z,62.21
2018-12-15T13:19:52.670Z,62.06
2018-12-15T13:21:22.837Z,62.30
2018-12-15T13:22:52.835Z,61.88
2018-12-15T13:24:22.970Z,63.39
2018-12-15T13:25:52.923Z,63.11
2018-12-15T13:27:22.869Z,63.79
2018-12-15T13:28:52.970Z,63.69
2018-12-15T13:30:23.264Z,64.32
2018-12-15T13:31:53.380Z,63.88
2018-12-15T13:33:32.788Z,65.22
2018-12-15T13:35:03.116Z,65.69
2018-12-15T13:36:33.147Z,64.38
2018-12-15T13:38:03.113Z,63.80
2018-12-15T13:39:41.535Z,63.27
2018-12-15T13:41:11.594Z,64.99
2018-12-15T13:42:42.892Z,64.02
2018-12-15T13:44:12.882Z,63.97
2018-12-15T13:45:42.959Z,64.30
2018-12-15T13:47:13.118Z,64.87
2018-12-15T13:48:43.266Z,65.17
2018-12-15T13:50:13.242Z,64.26
2018-12-15T13:51:43.489Z,64.98
2018-12-15T13:53:13.494Z,64.23
2018-12-15T13:54:43.469Z,64.49
2018-12-15T13:56:13.522Z,64.26
2018-12-15T13:57:43.746Z,64.82
2018-12-15T13:59:14.106Z,64.33
2018-12-15T14:00:51.025Z,65.66
2018-12-15T14:02:21.167Z,64.08
2018-12-15T14:03:51.412Z,64.19
2018-12-15T14:05:21.367Z,64.90
2018-12-15T14:06:51.323Z,64.22
2018-12-15T14:08:21.248Z,63.82
2018-12-15T14:09:51.221Z,65.16
2018-12-15T14:11:21.274Z,64.47
2018-12-15T14:12:51.307Z,64.35
2018-12-15T14:14:21.380Z,64.39
2018-12-15T14:15:51.492Z,64.74
2018-12-15T14:17:21.446Z,63.49
2018-12-15T14:18:51.641Z,65.18
2018-12-15T14:20:21.600Z,63.75
2018-12-15T14:21:51.784Z,65.04
2018-12-15T14:23:21.731Z,65.04
2018-12-15T14:24:51.943Z,64.03
2018-12-15T14:26:21.943Z,64.01
2018-12-15T14:27:51.857Z,64.62
2018-12-15T14:29:21.789Z,64.98
2018-12-15T14:30:51.927Z,65.05
2018-12-15T14:32:21.878Z,65.32
2018-12-15T14:33:51.831Z,65.90
2018-12-15T14:35:21.964Z,65.85
2018-12-15T14:36:51.875Z,66.60
2018-12-15T14:38:21.759Z,65.41
2018-12-15T14:39:51.711Z,65.41
2018-12-15T14:41:21.888Z,64.65
2018-12-15T14:42:51.807Z,66.49
2018-12-15T14:44:21.940Z,65.65
2018-12-15T14:45:51.904Z,66.18
2018-12-15T14:47:21.831Z,67.14
2018-12-15T14:48:51.790Z,65.48
2018-12-15T14:50:23.546Z,64.75
2018-12-15T14:51:53.663Z,65.25
2018-12-15T14:53:23.739Z,65.97
2018-12-15T14:54:53.666Z,66.21
2018-12-15T14:56:23.698Z,66.43
2018-12-15T14:57:53.927Z,66.75
2018-12-15T14:59:23.878Z,67.47
2018-12-15T15:00:53.828Z,66.02
2018-12-15T15:02:23.888Z,66.04
2018-12-15T15:03:53.888Z,66.38
2018-12-15T15:05:23.967Z,65.98
2018-12-15T15:06:54.163Z,66.04
2018-12-15T15:08:24.186Z,66.27
2018-12-15T15:09:54.208Z,66.26
2018-12-15T15:11:24.363Z,66.78
2018-12-15T15:12:54.312Z,66.14
2018-12-15T15:14:24.227Z,65.37
2018-12-15T15:15:54.307Z,65.82
2018-12-15T15:17:24.227Z,65.96
2018-12-15T15:18:54.146Z,66.11
2018-12-15T15:20:29.666Z,66.89
2018-12-15T15:21:55.978Z,65.90
2018-12-15T15:23:26.005Z,66.62
2018-12-15T15:24:55.904Z,66.35
2018-12-15T15:26:25.860Z,66.47
2018-12-15T15:27:55.758Z,66.05
2018-12-15T15:29:25.655Z,65.14
2018-12-15T15:30:55.599Z,65.74
2018-12-15T15:32:25.500Z,66.12
2018-12-15T15:33:55.395Z,66.59
2018-12-15T15:35:25.578Z,65.75
2018-12-15T15:36:55.467Z,65.68
2018-12-15T15:38:25.471Z,66.58
2018-12-15T15:39:55.338Z,65.90
2018-12-15T15:41:25.410Z,67.08
2018-12-15T15:42:55.362Z,66.56
2018-12-15T15:44:25.358Z,66.26
2018-12-15T15:45:55.394Z,67.54
2018-12-15T15:47:25.319Z,67.86
2018-12-15T15:48:55.287Z,67.70
2018-12-15T15:50:25.210Z,67.62
2018-12-15T15:51:55.095Z,66.27
2018-12-15T15:53:24.996Z,65.91
2018-12-15T15:54:54.887Z,67.22
2018-12-15T15:56:24.952Z,67.58
2018-12-15T15:57:55.280Z,67.19
2018-12-15T15:59:25.309Z,67.29
2018-12-15T16:00:55.347Z,66.59
2018-12-15T16:02:25.231Z,67.37
2018-12-15T16:03:55.107Z,67.61
2018-12-15T16:05:25.167Z,67.22
2018-12-15T16:06:55.097Z,67.05
2018-12-15T16:08:25.206Z,66.71
2018-12-15T16:09:55.221Z,67.39
2018-12-15T16:11:27.393Z,66.96
2018-12-15T16:12:57.542Z,66.34
2018-12-15T16:14:27.594Z,67.17
2018-12-15T16:15:57.511Z,67.54
2018-12-15T16:17:27.643Z,66.25
2018-12-15T16:18:57.959Z,66.57
2018-12-15T16:20:28.155Z,66.67
2018-12-15T16:21:58.335Z,66.95
2018-12-15T16:23:28.279Z,66.09
2018-12-15T16:24:58.282Z,66.97
2018-12-15T16:26:28.601Z,67.28
2018-12-15T16:27:58.815Z,67.14
2018-12-15T16:29:28.896Z,66.15
2018-12-15T16:31:00.731Z,66.84
2018-12-15T16:32:30.750Z,66.49
2018-12-15T16:34:00.910Z,66.12
2018-12-15T16:35:30.964Z,67.02
2018-12-15T16:37:01.017Z,66.19
2018-12-15T16:38:31.283Z,66.71
2018-12-15T16:40:01.549Z,66.68
2018-12-15T16:41:31.642Z,65.75
2018-12-15T16:43:01.658Z,65.84
2018-12-15T16:44:31.683Z,65.77
2018-12-15T16:46:01.624Z,67.06
2018-12-15T16:47:31.518Z,66.98
2018-12-15T16:49:01.395Z,65.94
2018-12-15T16:50:31.409Z,66.85
2018-12-15T16:52:01.459Z,66.66
2018-12-15T16:53:31.599Z,66.97
2018-12-15T16:55:01.985Z,66.69
2018-12-15T16:56:32.066Z,67.47
2018-12-15T16:58:02.285Z,66.21
2018-12-15T16:59:32.396Z,66.77
2018-12-15T17:01:02.583Z,67.01
2018-12-15T17:02:32.491Z,66.65
2018-12-15T17:04:02.524Z,67.50
2018-12-15T17:05:32.551Z,67.18
2018-12-15T17:07:02.718Z,67.39
2018-12-15T17:08:32.888Z,66.91
2018-12-15T17:10:05.259Z,66.49
2018-12-15T17:11:35.598Z,66.34
2018-12-15T17:13:05.806Z,65.52
2018-12-15T17:14:35.991Z,65.84
2018-12-15T17:16:06.271Z,66.30
2018-12-15T17:17:36.397Z,66.76
2018-12-15T17:19:06.459Z,66.46
2018-12-15T17:20:36.487Z,66.53
2018-12-15T17:22:06.501Z,67.38
2018-12-15T17:23:36.394Z,67.30
2018-12-15T17:25:07.711Z,67.08
2018-12-15T17:26:52.561Z,67.83
2018-12-15T17:28:22.625Z,67.59
2018-12-15T17:29:52.523Z,66.75
2018-12-15T17:31:22.662Z,67.62
2018-12-15T17:32:52.782Z,66.33
2018-12-15T17:34:22.681Z,67.36
2018-12-15T17:35:52.622Z,67.18
2018-12-15T17:37:23.052Z,66.46
2018-12-15T17:38:53.338Z,66.70
2018-12-15T17:40:23.416Z,66.89
2018-12-15T17:41:53.351Z,66.38
2018-12-15T17:43:23.235Z,65.77
2018-12-15T17:44:53.319Z,65.89
2018-12-15T17:46:23.401Z,67.37
2018-12-15T17:47:53.338Z,65.86
2018-12-15T17:49:23.590Z,66.19
2018-12-15T17:50:53.675Z,66.73
2018-12-15T17:52:23.865Z,66.85
2018-12-15T17:53:54.286Z,66.85
2018-12-15T17:55:24.714Z,68.42
2018-12-15T17:56:54.981Z,66.85
2018-12-15T17:58:25.051Z,67.47
2018-12-15T17:59:55.003Z,67.39
2018-12-15T18:01:24.968Z,67.80
2018-12-15T18:02:54.896Z,67.55
2018-12-15T18:04:25.059Z,66.79
2018-12-15T18:05:55.195Z,66.12
2018-12-15T18:07:25.127Z,67.33
2018-12-15T18:08:55.322Z,66.31
2018-12-15T18:10:25.294Z,66.67
2018-12-15T18:11:55.375Z,66.31
2018-12-15T18:13:25.607Z,66.76
2018-12-15T18:14:55.679Z,66.81
2018-12-15T18:16:25.650Z,67.70
2018-12-15T18:17:55.822Z,66.51
2018-12-15T18:19:25.936Z,67.60
2018-12-15T18:20:55.886Z,67.03
2018-12-15T18:22:25.944Z,66.28
2018-12-15T18:23:55.886Z,67.51
2018-12-15T18:25:25.809Z,67.59
2018-12-15T18:26:56.098Z,66.48
2018-12-15T18:28:26.006Z,66.59
2018-12-15T18:29:55.902Z,68.33
2018-12-15T18:31:25.844Z,68.12
2018-12-15T18:32:55.758Z,66.68
2018-12-15T18:34:25.912Z,67.50
2018-12-15T18:35:55.847Z,68.15
2018-12-15T18:37:25.780Z,66.71
2018-12-15T18:38:55.666Z,67.72
2018-12-15T18:40:25.666Z,67.67
2018-12-15T18:41:55.617Z,67.90
2018-12-15T18:43:25.499Z,68.17
2018-12-15T18:44:55.429Z,68.46
2018-12-15T18:46:25.463Z,68.19
2018-12-15T18:47:55.474Z,68.11
2018-12-15T18:49:25.394Z,68.09
2018-12-15T18:50:55.504Z,68.19
2018-12-15T18:52:25.419Z,67.91
2018-12-15T18:53:55.310Z,68.76
2018-12-15T18:55:25.191Z,67.42
2018-12-15T18:56:55.263Z,67.74
2018-12-15T18:58:25.159Z,68.23
2018-12-15T18:59:55.046Z,68.37
2018-12-15T19:01:25.095Z,68.34
2018-12-15T19:02:54.994Z,67.42
2018-12-15T19:04:24.892Z,66.82
2018-12-15T19:05:54.765Z,67.26
2018-12-15T19:07:24.813Z,68.28
2018-12-15T19:08:54.826Z,67.58
2018-12-15T19:10:24.748Z,67.71
2018-12-15T19:11:55.053Z,68.68
2018-12-15T19:13:25.071Z,67.55
2018-12-15T19:14:55.823Z,67.57
2018-12-15T19:16:25.751Z,67.93
2018-12-15T19:17:55.746Z,68.11
2018-12-15T19:19:25.639Z,67.14
2018-12-15T19:20:55.583Z,68.07
2018-12-15T19:22:25.615Z,68.16
2018-12-15T19:23:55.551Z,67.97
2018-12-15T19:25:25.687Z,66.99
2018-12-15T19:26:55.719Z,68.36
2018-12-15T19:28:25.618Z,67.09
2018-12-15T19:29:55.491Z,66.87
2018-12-15T19:31:25.418Z,68.20
2018-12-15T19:32:55.319Z,68.53
2018-12-15T19:34:25.278Z,67.27
2018-12-15T19:35:55.219Z,66.97
2018-12-15T19:37:25.151Z,67.90
2018-12-15T19:38:55.063Z,67.32
2018-12-15T19:40:25.191Z,66.64
2018-12-15T19:41:55.119Z,68.20
2018-12-15T19:43:25.023Z,66.89
2018-12-15T19:44:54.915Z,68.25
2018-12-15T19:46:24.790Z,67.34
2018-12-15T19:47:54.747Z,67.15
2018-12-15T19:49:24.617Z,66.83
2018-12-15T19:50:54.606Z,67.58
2018-12-15T19:52:24.758Z,68.39
2018-12-15T19:53:54.698Z,67.85
2018-12-15T19:55:24.590Z,68.18